createdAt,value
2017-09-20T00:00:29.684Z,0
2017-09-20T00:05:35.074Z,0
2017-09-20T00:10:39.800Z,0
2017-09-20T00:15:45.868Z,0
2017-09-20T00:20:50.261Z,0
2017-09-20T00:25:55.321Z,0
2017-09-20T00:31:01.052Z,0
2017-09-20T00:36:06.447Z,0
2017-09-20T00:41:11.501Z,0
2017-09-20T00:46:16.563Z,0
2017-09-20T00:51:21.962Z,0
2017-09-20T00:56:27.353Z,0
2017-09-20T01:01:32.419Z,0
2017-09-20T01:06:37.808Z,0
2017-09-20T01:11:43.536Z,0
2017-09-20T01:16:48.613Z,0
2017-09-20T01:21:53.668Z,0
2017-09-20T01:26:59.398Z,0
2017-09-20T01:32:04.797Z,0
2017-09-20T01:37:10.199Z,0
2017-09-20T01:42:14.929Z,0
2017-09-20T01:47:20.659Z,0
2017-09-20T01:52:25.720Z,0
2017-09-20T01:57:31.113Z,0
2017-09-20T02:02:36.843Z,0
2017-09-20T02:07:42.577Z,0
2017-09-20T02:12:47.631Z,0
2017-09-20T02:17:52.359Z,0
2017-09-20T02:22:57.758Z,0
2017-09-20T02:28:03.148Z,0
2017-09-20T02:33:07.872Z,0
2017-09-20T02:38:13.268Z,0
2017-09-20T02:43:18.326Z,0
2017-09-20T02:48:23.381Z,0
2017-09-20T02:53:28.438Z,0
2017-09-20T02:58:33.831Z,0
2017-09-20T03:03:38.892Z,0
2017-09-20T03:08:43.943Z,0
2017-09-20T03:13:48.667Z,0
2017-09-20T03:18:53.726Z,0
2017-09-20T03:23:58.449Z,0
2017-09-20T03:29:03.508Z,0
2017-09-20T03:34:08.564Z,0
2017-09-20T03:39:14.289Z,0
2017-09-20T03:44:18.683Z,0
2017-09-20T03:49:24.080Z,0
2017-09-20T03:54:29.805Z,0
2017-09-20T03:59:34.865Z,0
2017-09-20T04:04:40.931Z,0
2017-09-20T04:09:46.659Z,0
2017-09-20T04:14:51.379Z,0
2017-09-20T04:19:57.112Z,0
2017-09-20T04:25:02.167Z,0
2017-09-20T04:30:06.606Z,0
2017-09-20T04:35:11.329Z,0
2017-09-20T04:40:16.770Z,0
2017-09-20T04:45:22.167Z,1
2017-09-20T04:50:27.219Z,2
2017-09-20T04:55:32.617Z,3
2017-09-20T05:00:38.679Z,4
2017-09-20T05:05:43.401Z,8
2017-09-20T05:10:48.802Z,12
2017-09-20T05:15:54.868Z,18
2017-09-20T05:21:00.261Z,28
2017-09-20T05:26:06.328Z,35
2017-09-20T05:31:11.442Z,40
2017-09-20T05:36:16.850Z,41
2017-09-20T05:41:21.580Z,24
2017-09-20T05:46:26.318Z,38
2017-09-20T05:51:32.045Z,50
2017-09-20T05:56:36.643Z,90
2017-09-20T06:01:42.371Z,84
2017-09-20T06:06:47.432Z,127
2017-09-20T06:11:52.491Z,171
2017-09-20T06:16:58.219Z,216
2017-09-20T06:22:04.298Z,204
2017-09-20T06:27:08.706Z,212
2017-09-20T06:32:14.437Z,222
2017-09-20T06:37:19.505Z,171
2017-09-20T06:42:24.899Z,156
2017-09-20T06:47:30.630Z,161
2017-09-20T06:52:35.365Z,190
2017-09-20T06:57:40.770Z,268
2017-09-20T07:02:45.828Z,315
2017-09-20T07:07:50.551Z,475
2017-09-20T07:12:56.615Z,805
2017-09-20T07:18:01.337Z,1000
2017-09-20T07:23:06.063Z,1071
2017-09-20T07:28:11.459Z,834
2017-09-20T07:33:16.854Z,1018
2017-09-20T07:38:21.917Z,971
2017-09-20T07:43:26.978Z,1630
2017-09-20T07:48:32.036Z,1203
2017-09-20T07:53:37.773Z,810
2017-09-20T07:58:43.157Z,541
2017-09-20T08:03:48.217Z,465
2017-09-20T08:08:53.274Z,743
2017-09-20T08:13:58.336Z,1099
2017-09-20T08:19:03.068Z,770
2017-09-20T08:24:08.126Z,1050
2017-09-20T08:29:12.849Z,750
2017-09-20T08:34:18.240Z,828
2017-09-20T08:39:22.964Z,908
2017-09-20T08:44:28.361Z,818
2017-09-20T08:49:33.754Z,944
2017-09-20T08:54:37.815Z,1930
2017-09-20T08:59:42.875Z,8671
2017-09-20T09:04:47.933Z,4384
2017-09-20T09:09:52.998Z,4276
2017-09-20T09:14:57.725Z,3535
2017-09-20T09:20:01.781Z,1427
2017-09-20T09:25:06.840Z,886
2017-09-20T09:30:11.903Z,1057
2017-09-20T09:35:17.301Z,1839
2017-09-20T09:40:23.373Z,2151
2017-09-20T09:45:28.761Z,1392
2017-09-20T09:50:34.161Z,1588
2017-09-20T09:55:40.222Z,934
2017-09-20T10:00:45.280Z,903
2017-09-20T10:05:49.700Z,1211
2017-09-20T10:10:54.055Z,923
2017-09-20T10:15:59.502Z,1093
2017-09-20T10:21:03.556Z,691
2017-09-20T10:26:08.617Z,593
2017-09-20T10:31:13.673Z,656
2017-09-20T10:36:18.732Z,448
2017-09-20T10:41:24.127Z,795
2017-09-20T10:46:29.859Z,1140
2017-09-20T10:51:35.589Z,1314
2017-09-20T10:56:40.650Z,1649
2017-09-20T11:01:45.710Z,979
2017-09-20T11:06:50.434Z,830
2017-09-20T11:11:55.176Z,437
2017-09-20T11:16:59.546Z,615
2017-09-20T11:22:04.274Z,523
2017-09-20T11:27:09.670Z,586
2017-09-20T11:32:15.062Z,443
2017-09-20T11:37:21.125Z,600
2017-09-20T11:42:26.548Z,511
2017-09-20T11:47:32.255Z,1006
2017-09-20T11:52:36.982Z,1323
2017-09-20T11:57:42.378Z,1266
2017-09-20T12:02:47.445Z,665
2017-09-20T12:07:52.835Z,881
2017-09-20T12:12:58.228Z,1519
2017-09-20T12:18:03.288Z,1684
2017-09-20T12:23:08.017Z,1222
2017-09-20T12:28:13.418Z,1146
2017-09-20T12:33:18.147Z,1435
2017-09-20T12:38:23.217Z,1282
2017-09-20T12:43:28.670Z,1281
2017-09-20T12:48:33.731Z,961
2017-09-20T12:53:39.125Z,985
2017-09-20T12:58:44.188Z,1449
2017-09-20T13:03:49.579Z,1315
2017-09-20T13:08:55.644Z,1377
2017-09-20T13:14:00.368Z,1256
2017-09-20T13:19:04.763Z,1120
2017-09-20T13:24:10.163Z,857
2017-09-20T13:29:15.897Z,1075
2017-09-20T13:34:21.293Z,854
2017-09-20T13:39:27.027Z,945
2017-09-20T13:44:32.093Z,925
2017-09-20T13:49:37.153Z,733
2017-09-20T13:54:41.881Z,689
2017-09-20T13:59:46.606Z,743
2017-09-20T14:04:52.677Z,754
2017-09-20T14:09:58.070Z,543
2017-09-20T14:15:03.801Z,782
2017-09-20T14:20:09.866Z,929
2017-09-20T14:25:15.607Z,773
2017-09-20T14:30:20.997Z,770
2017-09-20T14:35:26.059Z,600
2017-09-20T14:40:30.786Z,518
2017-09-20T14:45:35.848Z,391
2017-09-20T14:50:40.237Z,334
2017-09-20T14:55:44.963Z,514
2017-09-20T15:00:50.359Z,356
2017-09-20T15:05:56.089Z,394
2017-09-20T15:11:00.817Z,404
2017-09-20T15:16:06.547Z,443
2017-09-20T15:21:11.605Z,343
2017-09-20T15:26:16.664Z,291
2017-09-20T15:31:21.723Z,309
2017-09-20T15:36:26.455Z,279
2017-09-20T15:41:31.379Z,270
2017-09-20T15:46:36.104Z,281
2017-09-20T15:51:41.496Z,257
2017-09-20T15:56:46.557Z,258
2017-09-20T16:01:51.615Z,232
2017-09-20T16:06:57.012Z,220
2017-09-20T16:12:02.072Z,199
2017-09-20T16:17:07.725Z,189
2017-09-20T16:22:12.448Z,170
2017-09-20T16:27:17.840Z,168
2017-09-20T16:32:22.896Z,138
2017-09-20T16:37:27.956Z,123
2017-09-20T16:42:33.020Z,99
2017-09-20T16:47:37.743Z,83
2017-09-20T16:52:43.140Z,76
2017-09-20T16:57:47.531Z,60
2017-09-20T17:02:52.928Z,51
2017-09-20T17:07:58.655Z,37
2017-09-20T17:13:04.051Z,29
2017-09-20T17:18:09.445Z,21
2017-09-20T17:23:14.839Z,13
2017-09-20T17:28:20.228Z,8
2017-09-20T17:33:26.342Z,5
2017-09-20T17:38:31.817Z,2
2017-09-20T17:43:38.160Z,1
2017-09-20T17:48:43.236Z,3
2017-09-20T17:53:48.984Z,3
2017-09-20T17:58:54.719Z,0
2017-09-20T18:04:00.110Z,0
2017-09-20T18:09:06.173Z,0
2017-09-20T18:14:11.235Z,0
2017-09-20T18:19:16.702Z,0
2017-09-20T18:24:21.772Z,0
2017-09-20T18:29:27.203Z,0
2017-09-20T18:34:32.606Z,0
2017-09-20T18:39:38.024Z,0
2017-09-20T18:44:43.420Z,0
2017-09-20T18:49:48.485Z,0
2017-09-20T18:54:53.883Z,0
2017-09-20T18:59:59.005Z,0
2017-09-20T19:05:03.738Z,0
2017-09-20T19:10:08.805Z,0
2017-09-20T19:15:13.908Z,0
2017-09-20T19:20:18.936Z,0
2017-09-20T19:25:24.689Z,0
2017-09-20T19:30:30.148Z,0
2017-09-20T19:35:35.543Z,0
2017-09-20T19:40:40.937Z,0
2017-09-20T19:45:46.340Z,0
2017-09-20T19:50:51.736Z,0
2017-09-20T19:55:56.814Z,0
2017-09-20T20:01:02.007Z,0
2017-09-20T20:06:06.812Z,0
2017-09-20T20:11:11.543Z,0
2017-09-20T20:16:16.614Z,0
2017-09-20T20:21:22.008Z,0
2017-09-20T20:26:26.803Z,0
2017-09-20T20:31:32.211Z,0
2017-09-20T20:36:37.330Z,0
2017-09-20T20:41:43.077Z,0
2017-09-20T20:46:48.151Z,0
2017-09-20T20:51:54.222Z,0
2017-09-20T20:56:58.961Z,0
2017-09-20T21:02:04.027Z,0
2017-09-20T21:07:09.430Z,0
2017-09-20T21:12:14.836Z,0
2017-09-20T21:17:20.573Z,0
2017-09-20T21:22:25.966Z,0
2017-09-20T21:27:30.697Z,0
2017-09-20T21:32:36.432Z,0
2017-09-20T21:37:41.159Z,0
2017-09-20T21:42:46.560Z,0
2017-09-20T21:47:51.625Z,0
2017-09-20T21:52:56.698Z,0
2017-09-20T21:58:01.760Z,0
2017-09-20T22:03:06.829Z,0
2017-09-20T22:08:11.888Z,0
2017-09-20T22:13:16.614Z,0
2017-09-20T22:18:21.667Z,0
2017-09-20T22:23:26.726Z,0
2017-09-20T22:28:31.445Z,0
2017-09-20T22:33:36.836Z,0
2017-09-20T22:38:41.896Z,0
2017-09-20T22:43:46.953Z,0
2017-09-20T22:48:52.680Z,0
2017-09-20T22:53:58.067Z,0
2017-09-20T22:59:02.792Z,0
2017-09-20T23:04:08.186Z,0
2017-09-20T23:09:13.243Z,0
2017-09-20T23:14:18.635Z,0
2017-09-20T23:19:24.036Z,0
2017-09-20T23:24:29.089Z,0
2017-09-20T23:29:34.150Z,0
2017-09-20T23:34:39.203Z,0
2017-09-20T23:39:44.261Z,0
2017-09-20T23:44:49.644Z,0
2017-09-20T23:49:54.364Z,0
2017-09-20T23:54:59.419Z,0
